Joshua, Texas
Current Conditions -  °F | °C
As of 5:10 PM on Friday 31 Oct 2014 (Local Time) from KCPT Reporting Station
Clear Clear  
Wind Chill: 64°   Ceiling: Unl
Heat Index: 64°   Visibility: 10mi
Dew Point: 39°   Wind: 18mph
Humidity: 40%   Direction: 360°N
Pressure: 30.3"   Gusts: 24mph
Location:  32.46°N, 97.39°W
Report Text: KCPT 312210Z AUTO 36016G21KT 10SM CLR 18/04 A3030 RMK AO2
Loading
Personal Weather Stations






























Interactive Weather Map
Tropical Storm Tracking
New forecast layout! Learn more

10-Day Weather Forecast

Advertisements
Track Severe Weather on mobile